createdAt,value
2018-05-04T00:00:01.414Z,947.18
2018-05-04T00:01:01.321Z,947.18
2018-05-04T00:02:01.264Z,947.17
2018-05-04T00:03:01.137Z,947.18
2018-05-04T00:04:01.047Z,947.17
2018-05-04T00:05:00.956Z,947.15
2018-05-04T00:06:00.863Z,947.13
2018-05-04T00:07:00.805Z,947.13
2018-05-04T00:08:00.679Z,947.13
2018-05-04T00:09:00.590Z,947.17
2018-05-04T00:10:00.495Z,947.18
2018-05-04T00:11:00.402Z,947.19
2018-05-04T00:12:00.343Z,947.23
2018-05-04T00:13:00.219Z,947.17
2018-05-04T00:14:00.127Z,947.20
2018-05-04T00:15:00.036Z,947.18
2018-05-04T00:15:59.944Z,947.15
2018-05-04T00:16:59.891Z,947.15
2018-05-04T00:17:59.762Z,947.14
2018-05-04T00:18:59.670Z,947.13
2018-05-04T00:19:59.575Z,947.16
2018-05-04T00:20:59.484Z,947.19
2018-05-04T00:21:59.424Z,947.19
2018-05-04T00:22:59.302Z,947.24
2018-05-04T00:23:59.285Z,947.26
2018-05-04T00:24:59.115Z,947.24
2018-05-04T00:25:59.023Z,947.29
2018-05-04T00:26:58.933Z,947.28
2018-05-04T00:27:58.868Z,947.29
2018-05-04T00:28:58.744Z,947.27
2018-05-04T00:29:58.653Z,947.24
2018-05-04T00:30:58.561Z,947.30
2018-05-04T00:31:58.472Z,947.26
2018-05-04T00:32:58.411Z,947.22
2018-05-04T00:33:58.286Z,947.23
2018-05-04T00:34:58.193Z,947.27
2018-05-04T00:35:58.104Z,947.23
2018-05-04T00:36:58.010Z,947.25
2018-05-04T00:37:57.956Z,947.29
2018-05-04T00:38:57.824Z,947.27
2018-05-04T00:39:57.733Z,947.31
2018-05-04T00:40:57.639Z,947.36
2018-05-04T00:41:57.547Z,947.38
2018-05-04T00:42:57.484Z,947.38
2018-05-04T00:43:57.364Z,947.39
2018-05-04T00:44:57.271Z,947.44
2018-05-04T00:45:57.178Z,947.40
2018-05-04T00:46:57.115Z,947.42
2018-05-04T00:47:57.034Z,947.42
2018-05-04T00:48:56.899Z,947.42
2018-05-04T00:49:56.810Z,947.41
2018-05-04T00:50:56.716Z,947.42
2018-05-04T00:51:56.625Z,947.38
2018-05-04T00:52:56.564Z,947.44
2018-05-04T00:53:56.443Z,947.45
2018-05-04T00:54:56.351Z,947.45
2018-05-04T00:55:56.256Z,947.45
2018-05-04T00:56:56.163Z,947.46
2018-05-04T00:57:56.103Z,947.46
2018-05-04T00:58:55.975Z,947.48
2018-05-04T00:59:55.886Z,947.46
2018-05-04T01:00:55.792Z,947.44
2018-05-04T01:01:55.701Z,947.44
2018-05-04T01:02:55.641Z,947.44
2018-05-04T01:03:55.515Z,947.41
2018-05-04T01:04:55.424Z,947.42
2018-05-04T01:05:55.335Z,947.43
2018-05-04T01:06:55.238Z,947.43
2018-05-04T01:07:55.181Z,947.43
2018-05-04T01:08:55.056Z,947.50
2018-05-04T01:09:54.962Z,947.48
2018-05-04T01:10:54.870Z,947.52
2018-05-04T01:11:54.777Z,947.48
2018-05-04T01:12:54.791Z,947.48
2018-05-04T01:13:54.592Z,947.50
2018-05-04T01:14:54.497Z,947.48
2018-05-04T01:15:54.411Z,947.50
2018-05-04T01:16:54.314Z,947.53
2018-05-04T01:17:54.336Z,947.51
2018-05-04T01:18:54.126Z,947.52
2018-05-04T01:19:54.040Z,947.54
2018-05-04T01:20:53.945Z,947.60
2018-05-04T01:21:53.851Z,947.59
2018-05-04T01:22:53.787Z,947.60
2018-05-04T01:23:53.667Z,947.61
2018-05-04T01:24:53.668Z,947.60
2018-05-04T01:25:53.482Z,947.63
2018-05-04T01:26:53.386Z,947.65
2018-05-04T01:27:53.297Z,947.64
2018-05-04T01:28:53.236Z,947.64
2018-05-04T01:29:53.112Z,947.65
2018-05-04T01:30:53.016Z,947.67
2018-05-04T01:31:53.024Z,947.68
2018-05-04T01:32:52.833Z,947.65
2018-05-04T01:33:52.776Z,947.67
2018-05-04T01:34:52.645Z,947.60
2018-05-04T01:35:52.553Z,947.63
2018-05-04T01:36:52.465Z,947.66
2018-05-04T01:37:52.384Z,947.68
2018-05-04T01:38:52.432Z,947.66
2018-05-04T01:39:52.181Z,947.67
2018-05-04T01:40:52.089Z,947.68
2018-05-04T01:41:51.998Z,947.68
2018-05-04T01:42:51.906Z,947.66
2018-05-04T01:43:51.842Z,947.67
2018-05-04T01:44:51.721Z,947.70
2018-05-04T01:45:51.725Z,947.66
2018-05-04T01:46:51.535Z,947.65
2018-05-04T01:47:51.442Z,947.69
2018-05-04T01:48:51.379Z,947.71
2018-05-04T01:49:51.256Z,947.71
2018-05-04T01:50:51.162Z,947.77
2018-05-04T01:51:51.071Z,947.75
2018-05-04T01:52:51.075Z,947.76
2018-05-04T01:53:50.917Z,947.74
2018-05-04T01:54:50.795Z,947.74
2018-05-04T01:55:50.701Z,947.76
2018-05-04T01:56:50.612Z,947.78
2018-05-04T01:57:50.516Z,947.77
2018-05-04T01:58:50.463Z,947.76
2018-05-04T01:59:50.423Z,947.76
2018-05-04T02:00:50.239Z,947.74
2018-05-04T02:01:50.144Z,947.77
2018-05-04T02:02:50.053Z,947.78
2018-05-04T02:03:49.991Z,947.78
2018-05-04T02:04:49.866Z,947.73
2018-05-04T02:05:49.774Z,947.77
2018-05-04T02:06:49.782Z,947.83
2018-05-04T02:07:49.594Z,947.74
2018-05-04T02:08:49.531Z,947.78
2018-05-04T02:09:49.404Z,947.74
2018-05-04T02:10:49.316Z,947.78
2018-05-04T02:11:49.216Z,947.72
2018-05-04T02:12:49.130Z,947.75
2018-05-04T02:13:49.156Z,947.70
2018-05-04T02:14:48.942Z,947.70
2018-05-04T02:15:48.848Z,947.68
2018-05-04T02:16:48.757Z,947.67
2018-05-04T02:17:48.663Z,947.70
2018-05-04T02:18:48.605Z,947.71
2018-05-04T02:19:48.480Z,947.66
2018-05-04T02:20:48.481Z,947.67
2018-05-04T02:21:48.295Z,947.69
2018-05-04T02:22:48.203Z,947.68
2018-05-04T02:23:48.143Z,947.71
2018-05-04T02:24:48.019Z,947.75
2018-05-04T02:25:47.926Z,947.74
2018-05-04T02:26:47.831Z,947.73
2018-05-04T02:27:47.742Z,947.72
2018-05-04T02:28:47.684Z,947.73
2018-05-04T02:29:47.555Z,947.75
2018-05-04T02:30:47.462Z,947.74
2018-05-04T02:31:47.369Z,947.72
2018-05-04T02:32:47.278Z,947.69
2018-05-04T02:33:47.188Z,947.68
2018-05-04T02:34:47.223Z,947.71
2018-05-04T02:35:47.004Z,947.69
2018-05-04T02:36:46.910Z,947.71
2018-05-04T02:37:46.820Z,947.72
2018-05-04T02:38:46.735Z,947.73
2018-05-04T02:39:46.674Z,947.76
2018-05-04T02:40:46.634Z,947.76
2018-05-04T02:41:46.451Z,947.82
2018-05-04T02:42:46.360Z,947.79
2018-05-04T02:43:46.265Z,947.80
2018-05-04T02:44:46.204Z,947.80
2018-05-04T02:45:46.079Z,947.83
2018-05-04T02:46:45.988Z,947.81
2018-05-04T02:47:45.897Z,947.81
2018-05-04T02:48:45.823Z,947.77
2018-05-04T02:49:45.740Z,947.81
2018-05-04T02:50:45.622Z,947.80
2018-05-04T02:51:45.525Z,947.80
2018-05-04T02:52:45.434Z,947.83
2018-05-04T02:53:45.342Z,947.82
2018-05-04T02:54:45.279Z,947.82
2018-05-04T02:55:45.155Z,947.82
2018-05-04T02:56:45.067Z,947.76
2018-05-04T02:57:44.975Z,947.77
2018-05-04T02:58:44.891Z,947.78
2018-05-04T02:59:44.823Z,947.77
2018-05-04T03:00:44.697Z,947.78
2018-05-04T03:01:44.606Z,947.80
2018-05-04T03:02:44.513Z,947.80
2018-05-04T03:03:44.418Z,947.81
2018-05-04T03:04:44.361Z,947.81
2018-05-04T03:05:44.236Z,947.80
2018-05-04T03:06:44.143Z,947.82
2018-05-04T03:07:44.053Z,947.80
2018-05-04T03:08:43.961Z,947.77
2018-05-04T03:09:43.903Z,947.78
2018-05-04T03:10:43.779Z,947.71
2018-05-04T03:11:43.682Z,947.76
2018-05-04T03:12:43.592Z,947.73
2018-05-04T03:13:43.499Z,947.69
2018-05-04T03:14:43.438Z,947.69
2018-05-04T03:15:43.316Z,947.64
2018-05-04T03:16:43.222Z,947.67
2018-05-04T03:17:43.132Z,947.62
2018-05-04T03:18:43.038Z,947.67
2018-05-04T03:19:42.983Z,947.62
2018-05-04T03:20:42.857Z,947.64
2018-05-04T03:21:42.759Z,947.59
2018-05-04T03:22:42.669Z,947.64
2018-05-04T03:23:42.573Z,947.63
2018-05-04T03:24:42.516Z,947.60
2018-05-04T03:25:42.400Z,947.65
2018-05-04T03:26:42.301Z,947.64
2018-05-04T03:27:42.205Z,947.66
2018-05-04T03:28:42.116Z,947.70
2018-05-04T03:29:42.058Z,947.73
2018-05-04T03:30:41.934Z,947.70
2018-05-04T03:31:41.838Z,947.71
2018-05-04T03:32:41.750Z,947.72
2018-05-04T03:33:41.660Z,947.75
2018-05-04T03:34:41.593Z,947.74
2018-05-04T03:35:41.469Z,947.73
2018-05-04T03:36:41.377Z,947.75
2018-05-04T03:37:41.283Z,947.78
2018-05-04T03:38:41.192Z,947.82
2018-05-04T03:39:41.150Z,947.80
2018-05-04T03:40:41.007Z,947.82
2018-05-04T03:41:40.915Z,947.82
2018-05-04T03:42:40.823Z,947.85
2018-05-04T03:43:40.730Z,947.88
2018-05-04T03:44:40.643Z,947.84
2018-05-04T03:45:40.581Z,947.86
2018-05-04T03:46:40.450Z,947.90
2018-05-04T03:47:40.360Z,947.92
2018-05-04T03:48:40.270Z,947.95
2018-05-04T03:49:40.179Z,947.90
2018-05-04T03:50:40.115Z,947.95
2018-05-04T03:51:39.997Z,947.94
2018-05-04T03:52:39.901Z,947.95
2018-05-04T03:53:39.811Z,947.95
2018-05-04T03:54:39.716Z,947.95
2018-05-04T03:55:39.650Z,947.96
2018-05-04T03:56:39.529Z,947.93
2018-05-04T03:57:39.541Z,947.94
2018-05-04T03:58:39.346Z,947.93
2018-05-04T03:59:39.254Z,947.94
2018-05-04T04:00:39.193Z,947.90
2018-05-04T04:01:39.072Z,947.91
2018-05-04T04:02:38.977Z,947.94
2018-05-04T04:03:38.883Z,947.99
2018-05-04T04:04:38.889Z,947.96
2018-05-04T04:05:38.730Z,947.98
2018-05-04T04:06:38.607Z,948.01
2018-05-04T04:07:38.511Z,948.06
2018-05-04T04:08:38.421Z,948.03
2018-05-04T04:09:38.329Z,948.05
2018-05-04T04:10:38.264Z,948.06
2018-05-04T04:11:38.254Z,948.09
2018-05-04T04:12:38.084Z,948.07
2018-05-04T04:13:37.964Z,948.06
2018-05-04T04:14:37.867Z,948.08
2018-05-04T04:15:37.777Z,948.14
2018-05-04T04:16:37.719Z,948.15
2018-05-04T04:17:37.590Z,948.12
2018-05-04T04:18:37.595Z,948.16
2018-05-04T04:19:37.406Z,948.15
2018-05-04T04:20:37.317Z,948.15
2018-05-04T04:21:37.246Z,948.16
2018-05-04T04:22:37.128Z,948.16
2018-05-04T04:23:37.034Z,948.19
2018-05-04T04:24:36.940Z,948.18
2018-05-04T04:25:36.945Z,948.20
2018-05-04T04:26:36.787Z,948.19
2018-05-04T04:27:36.664Z,948.21
2018-05-04T04:28:36.572Z,948.21
2018-05-04T04:29:36.480Z,948.21
2018-05-04T04:30:36.386Z,948.24
2018-05-04T04:31:36.336Z,948.21
2018-05-04T04:32:36.309Z,948.21
2018-05-04T04:33:36.112Z,948.25
2018-05-04T04:34:36.016Z,948.22
2018-05-04T04:35:35.925Z,948.20
2018-05-04T04:36:35.863Z,948.19
2018-05-04T04:37:35.741Z,948.22
2018-05-04T04:38:35.648Z,948.20
2018-05-04T04:39:35.650Z,948.23
2018-05-04T04:40:35.465Z,948.24
2018-05-04T04:41:35.403Z,948.27
2018-05-04T04:42:35.278Z,948.32
2018-05-04T04:43:35.185Z,948.29
2018-05-04T04:44:35.093Z,948.33
2018-05-04T04:45:35.016Z,948.33
2018-05-04T04:46:35.033Z,948.36
2018-05-04T04:47:34.819Z,948.35
2018-05-04T04:48:34.723Z,948.36
2018-05-04T04:49:34.631Z,948.39
2018-05-04T04:50:34.539Z,948.38
2018-05-04T04:51:34.541Z,948.40
2018-05-04T04:52:34.357Z,948.38
2018-05-04T04:53:34.264Z,948.39
2018-05-04T04:54:34.171Z,948.38
2018-05-04T04:55:34.080Z,948.42
2018-05-04T04:56:34.023Z,948.41
2018-05-04T04:57:33.898Z,948.43
2018-05-04T04:58:33.800Z,948.47
2018-05-04T04:59:33.709Z,948.49
2018-05-04T05:00:33.618Z,948.49
2018-05-04T05:01:33.557Z,948.47
2018-05-04T05:02:33.448Z,948.50
2018-05-04T05:03:33.340Z,948.51
2018-05-04T05:04:33.247Z,948.50
2018-05-04T05:05:33.159Z,948.53
2018-05-04T05:06:33.097Z,948.55
2018-05-04T05:07:32.975Z,948.53
2018-05-04T05:08:33.173Z,948.55
2018-05-04T05:09:32.789Z,948.54
2018-05-04T05:10:32.696Z,948.60
2018-05-04T05:11:32.607Z,948.59
2018-05-04T05:12:32.543Z,948.60
2018-05-04T05:13:32.504Z,948.64
2018-05-04T05:14:32.330Z,948.58
2018-05-04T05:15:32.240Z,948.61
2018-05-04T05:16:32.177Z,948.65
2018-05-04T05:17:32.055Z,948.63
2018-05-04T05:18:31.962Z,948.64
2018-05-04T05:19:31.869Z,948.65
2018-05-04T05:20:31.778Z,948.67
2018-05-04T05:21:31.688Z,948.70
2018-05-04T05:22:31.630Z,948.71
2018-05-04T05:23:31.500Z,948.72
2018-05-04T05:24:31.408Z,948.73
2018-05-04T05:25:31.319Z,948.73
2018-05-04T05:26:31.234Z,948.73
2018-05-04T05:27:31.164Z,948.74
2018-05-04T05:28:31.044Z,948.76
2018-05-04T05:29:30.981Z,948.76
2018-05-04T05:30:30.866Z,948.79
2018-05-04T05:31:30.766Z,948.72
2018-05-04T05:32:30.709Z,948.78
2018-05-04T05:33:30.599Z,948.80
2018-05-04T05:34:30.492Z,948.78
2018-05-04T05:35:30.411Z,948.84
2018-05-04T05:36:30.310Z,948.91
2018-05-04T05:37:30.253Z,948.94
2018-05-04T05:38:30.131Z,949.00
2018-05-04T05:39:30.038Z,949.01
2018-05-04T05:40:29.944Z,948.99
2018-05-04T05:41:29.857Z,948.97
2018-05-04T05:42:29.819Z,948.99
2018-05-04T05:43:29.672Z,948.99
2018-05-04T05:44:29.582Z,949.02
2018-05-04T05:45:29.490Z,948.97
2018-05-04T05:46:29.401Z,948.95
2018-05-04T05:47:29.335Z,948.94
2018-05-04T05:48:29.217Z,948.85
2018-05-04T05:49:29.129Z,948.96
2018-05-04T05:50:29.035Z,948.94
2018-05-04T05:51:28.948Z,949.02
2018-05-04T05:52:28.882Z,949.03
2018-05-04T05:53:28.761Z,949.05
2018-05-04T05:54:28.685Z,949.05
2018-05-04T05:55:28.583Z,949.05
2018-05-04T05:56:28.489Z,949.00
2018-05-04T05:57:28.438Z,949.06
2018-05-04T05:58:28.308Z,949.07
2018-05-04T05:59:28.215Z,949.14
2018-05-04T06:00:28.125Z,949.16
2018-05-04T06:01:28.042Z,949.17
2018-05-04T06:02:27.976Z,949.16
2018-05-04T06:03:27.859Z,949.13
2018-05-04T06:04:27.766Z,949.14
2018-05-04T06:05:27.678Z,949.11
2018-05-04T06:06:27.583Z,949.15
2018-05-04T06:07:27.523Z,949.20
2018-05-04T06:08:27.405Z,949.23
2018-05-04T06:09:27.413Z,949.28
2018-05-04T06:10:27.220Z,949.31
2018-05-04T06:11:27.130Z,949.28
2018-05-04T06:12:27.071Z,949.31
2018-05-04T06:13:26.950Z,949.33
2018-05-04T06:14:26.861Z,949.36
2018-05-04T06:15:26.767Z,949.35
2018-05-04T06:16:26.680Z,949.42
2018-05-04T06:17:26.592Z,949.39
2018-05-04T06:18:26.526Z,949.42
2018-05-04T06:19:26.410Z,949.30
2018-05-04T06:20:26.319Z,949.21
2018-05-04T06:21:26.229Z,949.27
2018-05-04T06:22:26.142Z,949.35
2018-05-04T06:23:26.079Z,949.37
2018-05-04T06:24:25.963Z,949.47
2018-05-04T06:25:25.869Z,949.50
2018-05-04T06:26:25.788Z,949.52
2018-05-04T06:27:25.691Z,949.58
2018-05-04T06:28:25.632Z,949.57
2018-05-04T06:29:25.514Z,949.59
2018-05-04T06:30:25.426Z,949.61
2018-05-04T06:31:25.439Z,949.53
2018-05-04T06:32:25.246Z,949.37
2018-05-04T06:33:25.186Z,949.33
2018-05-04T06:34:25.062Z,949.29
2018-05-04T06:35:24.979Z,949.28
2018-05-04T06:36:24.889Z,949.29
2018-05-04T06:37:24.799Z,949.30
2018-05-04T06:38:24.743Z,949.28
2018-05-04T06:39:24.623Z,949.31
2018-05-04T06:40:24.531Z,949.30
2018-05-04T06:41:24.444Z,949.34
2018-05-04T06:42:24.356Z,949.40
2018-05-04T06:43:24.297Z,949.50
2018-05-04T06:44:24.179Z,949.55
2018-05-04T06:45:24.184Z,949.50
2018-05-04T06:46:24.000Z,949.40
2018-05-04T06:47:23.911Z,949.34
2018-05-04T06:48:23.860Z,949.28
2018-05-04T06:49:23.732Z,949.29
2018-05-04T06:50:23.645Z,949.35
2018-05-04T06:51:23.557Z,949.39
2018-05-04T06:52:23.663Z,949.45
2018-05-04T06:53:23.495Z,949.48
2018-05-04T06:54:23.289Z,949.46
2018-05-04T06:55:23.207Z,949.43
2018-05-04T06:56:23.113Z,949.45
2018-05-04T06:57:23.042Z,949.47
2018-05-04T06:58:22.967Z,949.51
2018-05-04T06:59:22.953Z,949.48
2018-05-04T07:00:22.759Z,949.43
2018-05-04T07:01:22.672Z,949.40
2018-05-04T07:02:22.585Z,949.33
2018-05-04T07:03:22.525Z,949.33
2018-05-04T07:04:22.409Z,949.29
2018-05-04T07:05:22.321Z,949.31
2018-05-04T07:06:22.323Z,949.38
2018-05-04T07:07:22.145Z,949.45
2018-05-04T07:08:22.082Z,949.47
2018-05-04T07:09:21.970Z,949.53
2018-05-04T07:10:21.885Z,949.50
2018-05-04T07:11:21.793Z,949.50
2018-05-04T07:12:21.702Z,949.52
2018-05-04T07:13:21.739Z,949.55
2018-05-04T07:14:21.527Z,949.54
2018-05-04T07:15:21.441Z,949.53
2018-05-04T07:16:21.352Z,949.50
2018-05-04T07:17:21.265Z,949.52
2018-05-04T07:18:21.206Z,949.58
2018-05-04T07:19:21.089Z,949.64
2018-05-04T07:20:21.103Z,949.68
2018-05-04T07:21:20.914Z,949.72
2018-05-04T07:22:20.826Z,949.77
2018-05-04T07:23:20.771Z,949.68
2018-05-04T07:24:20.655Z,949.62
2018-05-04T07:25:20.562Z,949.55
2018-05-04T07:26:20.481Z,949.52
2018-05-04T07:27:20.486Z,949.48
2018-05-04T07:28:20.306Z,949.51
2018-05-04T07:29:20.262Z,949.59
2018-05-04T07:30:20.127Z,949.67
2018-05-04T07:31:20.041Z,949.75
2018-05-04T07:32:19.955Z,949.89
2018-05-04T07:33:19.870Z,950.14
2018-05-04T07:34:19.904Z,950.28
2018-05-04T07:35:19.699Z,950.45
2018-05-04T07:36:19.610Z,950.61
2018-05-04T07:37:19.520Z,950.89
2018-05-04T07:38:19.440Z,952.14
2018-05-04T07:39:19.377Z,953.01
2018-05-04T07:40:19.258Z,955.21
2018-05-04T07:41:19.269Z,953.86
2018-05-04T07:42:19.155Z,957.32
2018-05-04T07:43:18.995Z,956.10
2018-05-04T07:44:18.942Z,957.24
2018-05-04T07:45:18.826Z,955.26
2018-05-04T07:46:18.742Z,952.91
2018-05-04T07:47:18.654Z,950.70
2018-05-04T07:48:18.668Z,950.25
2018-05-04T07:49:18.516Z,950.33
2018-05-04T07:50:18.400Z,950.39
2018-05-04T07:51:18.315Z,950.43
2018-05-04T07:52:18.225Z,950.46
2018-05-04T07:53:18.139Z,950.60
2018-05-04T07:54:18.088Z,950.49
2018-05-04T07:55:18.014Z,950.43
2018-05-04T07:56:17.886Z,950.79
2018-05-04T07:57:17.802Z,951.08
2018-05-04T07:58:17.715Z,950.95
2018-05-04T07:59:17.663Z,953.32
2018-05-04T08:00:17.546Z,951.62
2018-05-04T08:01:17.466Z,950.99
2018-05-04T08:02:17.377Z,951.07
2018-05-04T08:03:17.296Z,950.46
2018-05-04T08:04:17.235Z,950.37
2018-05-04T08:05:17.125Z,950.45
2018-05-04T08:06:17.039Z,950.73
2018-05-04T08:07:16.954Z,950.74
2018-05-04T08:08:16.867Z,950.98
2018-05-04T08:09:16.814Z,951.28
2018-05-04T08:10:16.700Z,951.94
2018-05-04T08:11:16.614Z,952.36
2018-05-04T08:12:16.530Z,951.87
2018-05-04T08:13:16.461Z,951.51
2018-05-04T08:14:16.396Z,951.39
2018-05-04T08:15:16.275Z,951.38
2018-05-04T08:16:16.194Z,951.51
2018-05-04T08:17:16.110Z,952.07
2018-05-04T08:18:16.028Z,952.47
2018-05-04T08:19:15.973Z,952.63
2018-05-04T08:20:15.857Z,952.39
2018-05-04T08:21:15.773Z,952.79
2018-05-04T08:22:15.689Z,953.66
2018-05-04T08:23:15.606Z,953.56
2018-05-04T08:24:15.555Z,953.23
2018-05-04T08:25:15.438Z,955.09
2018-05-04T08:26:15.354Z,954.41
2018-05-04T08:27:15.324Z,954.46
2018-05-04T08:28:15.188Z,953.94
2018-05-04T08:29:15.106Z,953.89
2018-05-04T08:30:15.051Z,953.86
2018-05-04T08:31:14.937Z,953.46
2018-05-04T08:32:14.861Z,953.13
2018-05-04T08:33:14.772Z,953.25
2018-05-04T08:34:14.695Z,953.14
2018-05-04T08:35:14.701Z,952.53
2018-05-04T08:36:14.526Z,952.34
2018-05-04T08:37:14.447Z,952.35
2018-05-04T08:38:14.361Z,952.42
2018-05-04T08:39:14.278Z,952.49
2018-05-04T08:40:14.229Z,951.62
2018-05-04T08:41:14.117Z,951.90
2018-05-04T08:42:14.031Z,952.32
2018-05-04T08:43:14.039Z,952.04
2018-05-04T08:44:13.872Z,952.10
2018-05-04T08:45:13.820Z,952.11
2018-05-04T08:46:13.709Z,951.99
2018-05-04T08:47:13.623Z,951.54
2018-05-04T08:48:13.551Z,951.54
2018-05-04T08:49:13.461Z,951.19
2018-05-04T08:50:13.415Z,951.21
2018-05-04T08:51:13.314Z,951.54
2018-05-04T08:52:13.226Z,951.84
2018-05-04T08:53:13.143Z,951.55
2018-05-04T08:54:13.081Z,951.24
2018-05-04T08:55:13.010Z,950.93
2018-05-04T08:56:12.906Z,950.88
2018-05-04T08:57:12.906Z,951.07
2018-05-04T08:58:12.740Z,951.24
2018-05-04T08:59:12.658Z,950.99
2018-05-04T09:00:12.612Z,950.84
2018-05-04T09:01:12.500Z,950.76
2018-05-04T09:02:12.420Z,951.10
2018-05-04T09:03:12.339Z,951.06
2018-05-04T09:04:12.353Z,950.63
2018-05-04T09:05:12.319Z,950.52
2018-05-04T09:06:12.102Z,950.65
2018-05-04T09:07:12.024Z,950.45
2018-05-04T09:08:11.947Z,950.72
2018-05-04T09:09:11.861Z,950.73
2018-05-04T09:10:11.813Z,950.59
2018-05-04T09:11:11.810Z,950.75
2018-05-04T09:12:11.623Z,950.77
2018-05-04T09:13:11.542Z,950.69
2018-05-04T09:14:11.464Z,950.66
2018-05-04T09:15:11.416Z,950.71
2018-05-04T09:16:11.304Z,950.74
2018-05-04T09:17:11.227Z,950.80
2018-05-04T09:18:11.242Z,950.80
2018-05-04T09:19:11.067Z,950.82
2018-05-04T09:20:11.013Z,950.91
2018-05-04T09:21:10.915Z,950.96
2018-05-04T09:22:10.869Z,950.91
2018-05-04T09:23:10.752Z,950.92
2018-05-04T09:24:10.665Z,950.92
2018-05-04T09:25:10.711Z,950.80
2018-05-04T09:26:10.506Z,950.75
2018-05-04T09:27:10.426Z,950.71
2018-05-04T09:28:10.349Z,950.73
2018-05-04T09:29:10.266Z,950.73
2018-05-04T09:30:10.218Z,950.67
2018-05-04T09:31:10.108Z,950.65
2018-05-04T09:32:10.121Z,950.61
2018-05-04T09:33:09.948Z,950.53
2018-05-04T09:34:09.869Z,950.50
2018-05-04T09:35:09.837Z,950.54
2018-05-04T09:36:09.744Z,950.43
2018-05-04T09:37:09.641Z,950.43
2018-05-04T09:38:09.555Z,950.41
2018-05-04T09:39:09.567Z,950.37
2018-05-04T09:40:09.398Z,950.36
2018-05-04T09:41:09.346Z,950.32
2018-05-04T09:42:09.237Z,950.35
2018-05-04T09:43:09.161Z,950.29
2018-05-04T09:44:09.085Z,950.28
2018-05-04T09:45:09.002Z,950.28
2018-05-04T09:46:09.096Z,950.29
2018-05-04T09:47:08.844Z,950.38
2018-05-04T09:48:08.760Z,950.36
2018-05-04T09:49:08.705Z,950.28
2018-05-04T09:50:08.602Z,950.34
2018-05-04T09:51:08.554Z,950.34
2018-05-04T09:52:08.445Z,950.34
2018-05-04T09:53:08.461Z,950.31
2018-05-04T09:54:08.289Z,950.35
2018-05-04T09:55:08.212Z,950.30
2018-05-04T09:56:08.236Z,950.25
2018-05-04T09:57:08.052Z,950.26
2018-05-04T09:58:07.971Z,950.21
2018-05-04T09:59:07.893Z,950.18
2018-05-04T10:00:07.915Z,950.21
2018-05-04T10:01:07.766Z,950.18
2018-05-04T10:02:07.660Z,950.19
2018-05-04T10:03:07.578Z,950.23
2018-05-04T10:04:07.501Z,950.22
2018-05-04T10:05:07.422Z,950.27
2018-05-04T10:06:07.374Z,950.20
2018-05-04T10:07:07.266Z,950.26
2018-05-04T10:08:07.222Z,950.32
2018-05-04T10:09:07.176Z,950.29
2018-05-04T10:10:07.034Z,950.33
2018-05-04T10:11:06.983Z,950.36
2018-05-04T10:12:06.972Z,950.34
2018-05-04T10:13:06.796Z,950.37
2018-05-04T10:14:06.729Z,950.35
2018-05-04T10:15:06.638Z,950.37
2018-05-04T10:16:06.622Z,950.31
2018-05-04T10:17:06.481Z,950.24
2018-05-04T10:18:06.402Z,950.30
2018-05-04T10:19:06.325Z,950.30
2018-05-04T10:20:06.249Z,950.32
2018-05-04T10:21:06.203Z,950.28
2018-05-04T10:22:06.089Z,950.23
2018-05-04T10:23:06.009Z,950.25
2018-05-04T10:24:05.928Z,950.17
2018-05-04T10:25:05.850Z,950.14
2018-05-04T10:26:05.799Z,950.10
2018-05-04T10:27:05.696Z,950.11
2018-05-04T10:28:05.612Z,950.13
2018-05-04T10:29:05.556Z,950.09
2018-05-04T10:30:05.455Z,950.09
2018-05-04T10:31:05.412Z,950.07
2018-05-04T10:32:05.394Z,950.09
2018-05-04T10:33:05.318Z,950.13
2018-05-04T10:34:05.136Z,950.19
2018-05-04T10:35:05.060Z,950.17
2018-05-04T10:36:05.016Z,950.20
2018-05-04T10:37:04.903Z,950.24
2018-05-04T10:38:04.837Z,950.22
2018-05-04T10:39:04.739Z,950.24
2018-05-04T10:40:04.669Z,950.21
2018-05-04T10:41:04.585Z,950.18
2018-05-04T10:42:04.542Z,950.20
2018-05-04T10:43:04.429Z,950.14
2018-05-04T10:44:04.350Z,950.20
2018-05-04T10:45:04.289Z,950.17
2018-05-04T10:46:04.209Z,950.13
2018-05-04T10:47:04.144Z,950.15
2018-05-04T10:48:04.038Z,950.14
2018-05-04T10:49:03.957Z,950.14
2018-05-04T10:50:03.876Z,950.19
2018-05-04T10:51:03.800Z,950.19
2018-05-04T10:52:03.748Z,950.21
2018-05-04T10:53:03.641Z,950.22
2018-05-04T10:54:03.569Z,950.23
2018-05-04T10:55:03.484Z,950.42
2018-05-04T10:56:03.408Z,950.43
2018-05-04T10:57:03.361Z,950.39
2018-05-04T10:58:03.249Z,950.29
2018-05-04T10:59:03.175Z,950.28
2018-05-04T11:00:03.188Z,950.18
2018-05-04T11:01:03.018Z,950.27
2018-05-04T11:02:02.972Z,950.36
2018-05-04T11:03:02.862Z,950.26
2018-05-04T11:04:02.782Z,950.30
2018-05-04T11:05:02.706Z,950.37
2018-05-04T11:06:02.625Z,950.29
2018-05-04T11:07:02.577Z,950.39
2018-05-04T11:08:02.472Z,950.36
2018-05-04T11:09:02.398Z,950.34
2018-05-04T11:10:02.316Z,950.32
2018-05-04T11:11:02.239Z,950.42
2018-05-04T11:12:02.276Z,950.35
2018-05-04T11:13:02.083Z,950.37
2018-05-04T11:14:02.005Z,950.28
2018-05-04T11:15:01.925Z,950.30
2018-05-04T11:16:01.848Z,950.39
2018-05-04T11:17:01.804Z,950.16
2018-05-04T11:18:01.694Z,950.16
2018-05-04T11:19:01.617Z,950.44
2018-05-04T11:20:01.537Z,950.24
2018-05-04T11:21:01.461Z,950.46
2018-05-04T11:22:01.417Z,950.38
2018-05-04T11:23:01.304Z,950.33
2018-05-04T11:24:01.231Z,950.28
2018-05-04T11:25:01.145Z,950.24
2018-05-04T11:26:01.069Z,950.13
2018-05-04T11:27:01.022Z,950.24
2018-05-04T11:28:00.915Z,950.20
2018-05-04T11:29:00.929Z,950.18
2018-05-04T11:30:00.761Z,950.19
2018-05-04T11:31:00.678Z,950.10
2018-05-04T11:32:00.632Z,950.06
2018-05-04T11:33:00.521Z,950.13
2018-05-04T11:34:00.448Z,950.11
2018-05-04T11:35:00.367Z,950.05
2018-05-04T11:36:00.383Z,950.06
2018-05-04T11:37:00.241Z,949.97
2018-05-04T11:38:00.131Z,950.00
2018-05-04T11:39:00.136Z,949.87
2018-05-04T11:39:59.975Z,950.10
2018-05-04T11:40:59.897Z,950.13
2018-05-04T11:41:59.819Z,950.07
2018-05-04T11:42:59.862Z,950.07
2018-05-04T11:43:59.661Z,950.08
2018-05-04T11:44:59.580Z,950.04
2018-05-04T11:45:59.501Z,950.09
2018-05-04T11:46:59.449Z,950.02
2018-05-04T11:47:59.376Z,949.99
2018-05-04T11:48:59.261Z,950.05
2018-05-04T11:49:59.272Z,949.99
2018-05-04T11:50:59.103Z,950.02
2018-05-04T11:51:59.023Z,950.06
2018-05-04T11:52:58.973Z,950.11
2018-05-04T11:53:58.858Z,949.99
2018-05-04T11:54:58.780Z,949.96
2018-05-04T11:55:58.837Z,950.08
2018-05-04T11:56:58.623Z,949.92
2018-05-04T11:57:58.567Z,949.95
2018-05-04T11:58:58.462Z,949.94
2018-05-04T11:59:58.380Z,950.12
2018-05-04T12:00:58.304Z,949.99
2018-05-04T12:01:58.222Z,950.00
2018-05-04T12:02:58.175Z,949.99
2018-05-04T12:03:58.158Z,950.03
2018-05-04T12:04:57.989Z,949.98
2018-05-04T12:05:57.904Z,949.92
2018-05-04T12:06:57.830Z,950.01
2018-05-04T12:07:57.774Z,949.97
2018-05-04T12:08:57.664Z,949.93
2018-05-04T12:09:57.585Z,950.00
2018-05-04T12:10:57.518Z,949.98
2018-05-04T12:11:57.430Z,949.94
2018-05-04T12:12:57.379Z,949.99
2018-05-04T12:13:57.269Z,949.93
2018-05-04T12:14:57.187Z,949.91
2018-05-04T12:15:57.107Z,949.92
2018-05-04T12:16:57.027Z,949.91
2018-05-04T12:17:56.976Z,949.91
2018-05-04T12:18:56.866Z,949.97
2018-05-04T12:19:56.798Z,949.95
2018-05-04T12:20:56.706Z,949.99
2018-05-04T12:21:56.628Z,949.93
2018-05-04T12:22:56.579Z,949.96
2018-05-04T12:23:56.466Z,949.94
2018-05-04T12:24:56.389Z,950.00
2018-05-04T12:25:56.307Z,949.95
2018-05-04T12:26:56.227Z,949.95